createdAt,value
2023-05-18T00:00:56.363Z,8.11
2023-05-18T00:01:58.365Z,8.22
2023-05-18T00:03:00.115Z,8.23
2023-05-18T00:04:01.972Z,8.13
2023-05-18T00:05:03.836Z,7.85
2023-05-18T00:06:05.835Z,8.08
2023-05-18T00:07:07.537Z,7.85
2023-05-18T00:08:09.995Z,8.20
2023-05-18T00:09:11.783Z,8.11
2023-05-18T00:10:13.497Z,8.10
2023-05-18T00:11:15.190Z,8.12
2023-05-18T00:12:16.882Z,8.03
2023-05-18T00:13:18.541Z,8.10
2023-05-18T00:14:20.196Z,8.11
2023-05-18T00:15:21.865Z,8.15
2023-05-18T00:16:23.558Z,8.13
2023-05-18T00:17:25.376Z,8.15
2023-05-18T00:18:27.090Z,8.10
2023-05-18T00:19:28.904Z,8.06
2023-05-18T00:20:30.542Z,7.92
2023-05-18T00:21:32.216Z,8.08
2023-05-18T00:22:33.904Z,8.14
2023-05-18T00:23:35.567Z,8.13
2023-05-18T00:24:37.285Z,8.11
2023-05-18T00:25:38.961Z,8.05
2023-05-18T00:26:41.422Z,7.91
2023-05-18T00:27:43.113Z,8.10
2023-05-18T00:28:44.813Z,8.01
2023-05-18T00:29:46.485Z,8.14
2023-05-18T00:30:48.135Z,7.92
2023-05-18T00:31:49.851Z,8.00
2023-05-18T00:32:51.607Z,8.03
2023-05-18T00:33:53.300Z,8.07
2023-05-18T00:34:55.049Z,8.09
2023-05-18T00:35:57.778Z,7.91
2023-05-18T00:36:59.472Z,8.02
2023-05-18T00:38:01.191Z,8.00
2023-05-18T00:39:03.281Z,7.93
2023-05-18T00:40:05.289Z,8.08
2023-05-18T00:41:06.996Z,8.09
2023-05-18T00:42:08.701Z,8.10
2023-05-18T00:43:10.358Z,8.10
2023-05-18T00:44:12.436Z,8.05
2023-05-18T00:45:14.119Z,8.01
2023-05-18T00:46:15.813Z,7.88
2023-05-18T00:47:17.564Z,7.84
2023-05-18T00:48:19.444Z,8.10
2023-05-18T00:49:21.130Z,7.95
2023-05-18T00:50:22.817Z,8.05
2023-05-18T00:51:24.618Z,7.83
2023-05-18T00:52:26.932Z,8.13
2023-05-18T00:53:28.650Z,8.13
2023-05-18T00:54:30.561Z,7.94
2023-05-18T00:55:32.421Z,7.92
2023-05-18T00:56:34.373Z,8.10
2023-05-18T00:57:36.198Z,7.88
2023-05-18T00:58:38.885Z,8.04
2023-05-18T00:59:40.522Z,8.11
2023-05-18T01:00:42.199Z,7.92
2023-05-18T01:01:44.088Z,8.09
2023-05-18T01:02:46.130Z,7.51
2023-05-18T01:03:47.904Z,8.08
2023-05-18T01:04:50.597Z,7.96
2023-05-18T01:05:52.264Z,8.05
2023-05-18T01:06:55.421Z,7.84
2023-05-18T01:07:57.504Z,8.04
2023-05-18T01:09:00.063Z,8.00
2023-05-18T01:10:03.217Z,7.85
2023-05-18T01:11:32.662Z,8.12
2023-05-18T01:12:58.455Z,8.16
2023-05-18T01:14:18.812Z,8.16
2023-05-18T01:15:22.185Z,8.03
2023-05-18T01:16:26.225Z,7.97
2023-05-18T01:17:39.373Z,7.91
2023-05-18T01:18:44.687Z,8.12
2023-05-18T01:19:52.342Z,8.14
2023-05-18T01:21:09.227Z,8.16
2023-05-18T01:22:31.469Z,8.19
2023-05-18T01:23:47.991Z,8.15
2023-05-18T01:24:49.716Z,8.04
2023-05-18T01:25:54.202Z,8.12
2023-05-18T01:26:56.100Z,8.02
2023-05-18T01:28:00.192Z,8.14
2023-05-18T01:29:06.904Z,8.08
2023-05-18T01:30:08.811Z,7.93
2023-05-18T01:31:10.830Z,8.00
2023-05-18T01:32:19.149Z,8.10
2023-05-18T01:33:20.637Z,8.12
2023-05-18T01:34:22.299Z,8.01
2023-05-18T01:35:23.994Z,7.76
2023-05-18T01:36:25.691Z,7.74
2023-05-18T01:37:28.802Z,8.01
2023-05-18T01:38:30.617Z,8.12
2023-05-18T01:39:32.306Z,8.10
2023-05-18T01:40:41.812Z,7.90
2023-05-18T01:41:52.931Z,8.13
2023-05-18T01:42:59.759Z,7.79
2023-05-18T01:44:19.891Z,8.09
2023-05-18T01:45:22.762Z,8.06
2023-05-18T01:46:51.803Z,8.08
2023-05-18T01:47:53.569Z,8.01
2023-05-18T01:48:56.924Z,8.08
2023-05-18T01:50:04.034Z,8.10
2023-05-18T01:51:05.727Z,8.05
2023-05-18T01:52:16.644Z,8.09
2023-05-18T01:53:23.630Z,8.07
2023-05-18T01:54:25.315Z,7.82
2023-05-18T01:55:27.135Z,8.08
2023-05-18T01:56:28.821Z,8.03
2023-05-18T01:57:31.910Z,7.89
2023-05-18T01:58:33.955Z,8.07
2023-05-18T01:59:36.191Z,8.08
2023-05-18T02:00:37.840Z,7.99
2023-05-18T02:01:39.988Z,7.92
2023-05-18T02:02:41.760Z,7.84
2023-05-18T02:03:44.174Z,7.91
2023-05-18T02:04:46.044Z,7.85
2023-05-18T02:05:47.706Z,8.00
2023-05-18T02:06:49.388Z,8.01
2023-05-18T02:07:51.134Z,7.96
2023-05-18T02:08:52.837Z,7.84
2023-05-18T02:09:54.513Z,7.97
2023-05-18T02:10:57.131Z,7.95
2023-05-18T02:11:58.793Z,7.86
2023-05-18T02:13:01.181Z,8.00
2023-05-18T02:14:03.062Z,8.03
2023-05-18T02:15:05.695Z,7.91
2023-05-18T02:16:07.917Z,7.83
2023-05-18T02:17:09.489Z,8.04
2023-05-18T02:18:11.356Z,8.01
2023-05-18T02:19:14.131Z,8.03
2023-05-18T02:20:15.850Z,7.94
2023-05-18T02:21:17.533Z,7.96
2023-05-18T02:22:19.179Z,7.90
2023-05-18T02:23:21.195Z,8.02
2023-05-18T02:24:23.210Z,7.56
2023-05-18T02:25:24.911Z,7.92
2023-05-18T02:26:26.599Z,7.91
2023-05-18T02:27:28.248Z,7.75
2023-05-18T02:28:29.905Z,8.00
2023-05-18T02:29:31.600Z,8.00
2023-05-18T02:30:33.274Z,7.97
2023-05-18T02:31:34.977Z,8.03
2023-05-18T02:32:36.714Z,8.02
2023-05-18T02:33:41.026Z,7.90
2023-05-18T02:34:42.748Z,8.10
2023-05-18T02:35:44.409Z,8.08
2023-05-18T02:36:46.291Z,8.03
2023-05-18T02:37:48.044Z,8.05
2023-05-18T02:38:49.735Z,8.08
2023-05-18T02:39:51.454Z,7.97
2023-05-18T02:40:53.130Z,8.10
2023-05-18T02:41:54.805Z,8.12
2023-05-18T02:42:56.557Z,7.98
2023-05-18T02:43:59.213Z,7.78
2023-05-18T02:45:01.587Z,7.50
2023-05-18T02:46:04.721Z,8.05
2023-05-18T02:47:07.446Z,8.00
2023-05-18T02:48:09.212Z,7.85
2023-05-18T02:49:10.918Z,8.01
2023-05-18T02:50:13.713Z,7.93
2023-05-18T02:51:16.977Z,8.12
2023-05-18T02:52:18.995Z,7.97
2023-05-18T02:53:21.219Z,7.75
2023-05-18T02:54:23.175Z,7.72
2023-05-18T02:55:25.122Z,7.96
2023-05-18T02:56:48.358Z,7.87
2023-05-18T02:57:58.369Z,8.09
2023-05-18T02:59:17.122Z,8.08
2023-05-18T03:00:19.255Z,8.09
2023-05-18T03:01:21.274Z,8.08
2023-05-18T03:02:26.876Z,8.10
2023-05-18T03:03:28.730Z,7.80
2023-05-18T03:04:30.532Z,8.02
2023-05-18T03:05:32.455Z,7.97
2023-05-18T03:06:34.151Z,8.08
2023-05-18T03:07:35.895Z,8.06
2023-05-18T03:08:37.728Z,8.04
2023-05-18T03:09:39.415Z,7.92
2023-05-18T03:10:41.193Z,8.15
2023-05-18T03:11:42.862Z,8.09
2023-05-18T03:12:44.960Z,8.08
2023-05-18T03:13:47.770Z,8.08
2023-05-18T03:14:50.095Z,8.11
2023-05-18T03:15:52.784Z,8.00
2023-05-18T03:16:54.929Z,8.07
2023-05-18T03:17:58.603Z,8.08
2023-05-18T03:19:00.537Z,8.09
2023-05-18T03:20:07.968Z,7.99
2023-05-18T03:21:09.646Z,7.85
2023-05-18T03:22:11.309Z,7.89
2023-05-18T03:23:14.134Z,7.93
2023-05-18T03:24:16.603Z,8.10
2023-05-18T03:25:22.202Z,7.91
2023-05-18T03:26:24.045Z,8.04
2023-05-18T03:27:25.758Z,8.05
2023-05-18T03:28:27.443Z,7.95
2023-05-18T03:29:31.292Z,8.06
2023-05-18T03:30:33.802Z,8.02
2023-05-18T03:31:35.773Z,7.97
2023-05-18T03:32:38.165Z,8.16
2023-05-18T03:33:40.369Z,8.08
2023-05-18T03:34:42.069Z,7.21
2023-05-18T03:35:43.792Z,7.95
2023-05-18T03:36:45.541Z,8.19
2023-05-18T03:37:47.245Z,8.10
2023-05-18T03:38:48.995Z,8.13
2023-05-18T03:39:51.001Z,8.14
2023-05-18T03:40:54.191Z,8.08
2023-05-18T03:41:55.928Z,8.17
2023-05-18T03:42:57.577Z,8.18
2023-05-18T03:43:59.286Z,8.12
2023-05-18T03:45:01.051Z,7.88
2023-05-18T03:46:02.798Z,7.96
2023-05-18T03:47:04.643Z,8.12
2023-05-18T03:48:07.037Z,8.20
2023-05-18T03:49:08.710Z,8.32
2023-05-18T03:50:14.418Z,8.34
2023-05-18T03:51:17.121Z,8.28
2023-05-18T03:52:18.794Z,8.17
2023-05-18T03:53:20.480Z,8.24
2023-05-18T03:54:22.478Z,8.13
2023-05-18T03:55:26.338Z,8.22
2023-05-18T03:56:28.348Z,8.27
2023-05-18T03:57:31.326Z,8.09
2023-05-18T03:58:35.147Z,8.27
2023-05-18T03:59:37.887Z,8.13
2023-05-18T04:00:39.580Z,8.19
2023-05-18T04:01:41.311Z,8.21
2023-05-18T04:02:43.066Z,8.21
2023-05-18T04:03:45.194Z,8.29
2023-05-18T04:04:46.965Z,7.99
2023-05-18T04:05:48.667Z,8.13
2023-05-18T04:06:51.455Z,8.19
2023-05-18T04:07:53.125Z,8.21
2023-05-18T04:08:54.772Z,8.12
2023-05-18T04:09:56.486Z,8.19
2023-05-18T04:10:58.160Z,8.21
2023-05-18T04:11:59.861Z,8.10
2023-05-18T04:13:01.545Z,8.11
2023-05-18T04:14:03.193Z,8.17
2023-05-18T04:15:05.616Z,8.22
2023-05-18T04:16:07.571Z,8.16
2023-05-18T04:17:09.291Z,8.24
2023-05-18T04:18:13.442Z,8.03
2023-05-18T04:19:17.246Z,8.09
2023-05-18T04:20:19.191Z,8.03
2023-05-18T04:21:21.084Z,8.17
2023-05-18T04:22:22.737Z,8.14
2023-05-18T04:23:24.842Z,8.10
2023-05-18T04:24:26.586Z,8.16
2023-05-18T04:25:28.774Z,8.21
2023-05-18T04:26:33.606Z,8.17
2023-05-18T04:27:35.306Z,8.27
2023-05-18T04:28:37.027Z,8.28
2023-05-18T04:29:38.728Z,8.02
2023-05-18T04:30:40.573Z,8.16
2023-05-18T04:31:42.543Z,8.15
2023-05-18T04:32:44.242Z,8.18
2023-05-18T04:33:45.913Z,8.23
2023-05-18T04:34:47.573Z,8.32
2023-05-18T04:35:51.062Z,8.29
2023-05-18T04:36:53.214Z,8.27
2023-05-18T04:37:55.141Z,8.22
2023-05-18T04:38:57.360Z,8.08
2023-05-18T04:39:59.821Z,7.95
2023-05-18T04:41:01.525Z,8.11
2023-05-18T04:42:03.611Z,8.19
2023-05-18T04:43:05.992Z,8.21
2023-05-18T04:44:08.091Z,8.14
2023-05-18T04:45:10.273Z,8.20
2023-05-18T04:46:12.654Z,8.19
2023-05-18T04:47:14.403Z,8.19
2023-05-18T04:48:16.167Z,7.97
2023-05-18T04:49:18.744Z,8.08
2023-05-18T04:50:20.466Z,8.23
2023-05-18T04:51:22.141Z,8.21
2023-05-18T04:52:23.825Z,8.12
2023-05-18T04:53:25.480Z,8.20
2023-05-18T04:54:29.254Z,8.30
2023-05-18T04:55:31.395Z,8.40
2023-05-18T04:56:37.871Z,8.28
2023-05-18T04:57:39.581Z,8.41
2023-05-18T04:58:41.328Z,8.34
2023-05-18T04:59:43.046Z,8.24
2023-05-18T05:00:44.720Z,8.30
2023-05-18T05:01:46.530Z,8.23
2023-05-18T05:02:48.315Z,8.26
2023-05-18T05:03:50.116Z,8.30
2023-05-18T05:04:51.819Z,8.29
2023-05-18T05:05:53.515Z,8.22
2023-05-18T05:06:55.186Z,8.15
2023-05-18T05:07:56.843Z,8.16
2023-05-18T05:08:59.060Z,8.38
2023-05-18T05:10:00.731Z,8.36
2023-05-18T05:11:02.406Z,8.22
2023-05-18T05:12:04.343Z,8.31
2023-05-18T05:13:06.052Z,8.30
2023-05-18T05:14:07.834Z,8.22
2023-05-18T05:15:09.844Z,8.38
2023-05-18T05:16:11.631Z,8.18
2023-05-18T05:17:13.312Z,8.38
2023-05-18T05:18:15.021Z,8.38
2023-05-18T05:19:16.913Z,8.42
2023-05-18T05:20:18.742Z,8.22
2023-05-18T05:21:20.474Z,8.29
2023-05-18T05:22:23.223Z,8.41
2023-05-18T05:23:25.900Z,8.30
2023-05-18T05:24:28.554Z,8.33
2023-05-18T05:25:30.417Z,8.42
2023-05-18T05:26:32.299Z,8.42
2023-05-18T05:27:33.970Z,8.28
2023-05-18T05:28:36.847Z,8.35
2023-05-18T05:29:39.032Z,8.29
2023-05-18T05:30:40.720Z,8.36
2023-05-18T05:31:42.434Z,8.30
2023-05-18T05:32:44.572Z,8.38
2023-05-18T05:33:46.309Z,8.33
2023-05-18T05:34:48.427Z,8.44
2023-05-18T05:35:50.589Z,8.28
2023-05-18T05:36:52.279Z,8.19
2023-05-18T05:37:53.972Z,8.38
2023-05-18T05:38:55.693Z,8.39
2023-05-18T05:39:57.402Z,8.28
2023-05-18T05:40:59.209Z,8.34
2023-05-18T05:42:00.920Z,8.39
2023-05-18T05:43:02.601Z,8.33
2023-05-18T05:44:05.425Z,8.33
2023-05-18T05:45:09.431Z,8.37
2023-05-18T05:46:19.546Z,8.42
2023-05-18T05:47:21.254Z,8.37
2023-05-18T05:48:22.971Z,8.49
2023-05-18T05:49:24.654Z,8.47
2023-05-18T05:50:26.833Z,8.64
2023-05-18T05:51:31.713Z,8.63
2023-05-18T05:52:33.778Z,8.54
2023-05-18T05:53:35.866Z,8.52
2023-05-18T05:54:38.621Z,8.46
2023-05-18T05:55:40.322Z,8.42
2023-05-18T05:56:44.772Z,8.44
2023-05-18T05:57:47.216Z,8.40
2023-05-18T05:58:49.038Z,8.32
2023-05-18T05:59:51.167Z,8.44
2023-05-18T06:00:52.884Z,8.49
2023-05-18T06:01:54.961Z,8.07
2023-05-18T06:02:56.963Z,8.39
2023-05-18T06:04:09.035Z,8.44
2023-05-18T06:05:10.731Z,7.59
2023-05-18T06:06:13.054Z,8.00
2023-05-18T06:07:14.694Z,8.43
2023-05-18T06:08:16.853Z,8.47
2023-05-18T06:09:18.536Z,8.32
2023-05-18T06:10:20.200Z,8.44
2023-05-18T06:11:22.169Z,8.38
2023-05-18T06:12:23.846Z,8.48
2023-05-18T06:13:25.509Z,8.31
2023-05-18T06:14:29.784Z,8.46
2023-05-18T06:15:32.707Z,8.49
2023-05-18T06:16:34.654Z,8.54
2023-05-18T06:17:36.417Z,8.38
2023-05-18T06:18:38.163Z,8.68
2023-05-18T06:19:40.622Z,8.60
2023-05-18T06:20:42.302Z,8.45
2023-05-18T06:21:44.002Z,8.29
2023-05-18T06:22:45.741Z,8.44
2023-05-18T06:24:16.656Z,8.60
2023-05-18T06:25:44.482Z,8.44
2023-05-18T06:26:55.006Z,8.39
2023-05-18T06:28:19.484Z,8.60
2023-05-18T06:29:24.799Z,8.40
2023-05-18T06:30:51.867Z,8.70
2023-05-18T06:32:16.695Z,8.79
2023-05-18T06:33:26.995Z,8.69
2023-05-18T06:34:28.677Z,8.60
2023-05-18T06:35:30.522Z,8.58
2023-05-18T06:36:32.292Z,8.56
2023-05-18T06:37:33.956Z,8.03
2023-05-18T06:38:36.031Z,8.71
2023-05-18T06:39:37.800Z,8.58
2023-05-18T06:40:39.710Z,8.57
2023-05-18T06:41:41.437Z,8.54
2023-05-18T06:42:43.210Z,8.56
2023-05-18T06:44:00.794Z,8.58
2023-05-18T06:45:10.659Z,8.65
2023-05-18T06:46:27.831Z,8.73
2023-05-18T06:47:32.854Z,8.63
2023-05-18T06:48:34.644Z,8.62
2023-05-18T06:49:36.316Z,8.64
2023-05-18T06:50:38.026Z,8.69
2023-05-18T06:51:40.161Z,8.65
2023-05-18T06:52:41.887Z,8.74
2023-05-18T06:53:43.588Z,8.67
2023-05-18T06:54:45.263Z,8.78
2023-05-18T06:55:47.027Z,8.77
2023-05-18T06:56:49.049Z,8.79
2023-05-18T06:57:51.469Z,8.36
2023-05-18T06:58:53.153Z,8.77
2023-05-18T06:59:55.033Z,8.70
2023-05-18T07:00:57.487Z,8.33
2023-05-18T07:01:59.237Z,8.55
2023-05-18T07:03:01.396Z,8.63
2023-05-18T07:04:03.220Z,8.59
2023-05-18T07:05:05.904Z,8.74
2023-05-18T07:06:07.597Z,8.66
2023-05-18T07:07:09.259Z,8.47
2023-05-18T07:08:10.975Z,8.37
2023-05-18T07:09:12.763Z,8.71
2023-05-18T07:10:14.437Z,8.67
2023-05-18T07:11:16.129Z,8.73
2023-05-18T07:12:17.827Z,8.21
2023-05-18T07:13:19.749Z,8.58
2023-05-18T07:14:21.423Z,8.48
2023-05-18T07:15:23.106Z,8.34
2023-05-18T07:16:26.669Z,8.44
2023-05-18T07:17:28.508Z,8.44
2023-05-18T07:18:30.469Z,8.65
2023-05-18T07:19:32.126Z,8.66
2023-05-18T07:20:33.792Z,8.29
2023-05-18T07:21:35.521Z,8.58
2023-05-18T07:22:37.203Z,8.59
2023-05-18T07:23:38.891Z,8.70
2023-05-18T07:24:40.551Z,8.67
2023-05-18T07:25:42.244Z,8.66
2023-05-18T07:26:43.902Z,8.82
2023-05-18T07:27:45.546Z,8.74
2023-05-18T07:28:47.185Z,8.77
2023-05-18T07:29:48.847Z,8.89
2023-05-18T07:30:50.539Z,8.77
2023-05-18T07:31:52.318Z,8.76
2023-05-18T07:32:54.148Z,8.37
2023-05-18T07:33:55.822Z,8.86
2023-05-18T07:34:57.468Z,8.90
2023-05-18T07:35:59.119Z,8.83
2023-05-18T07:37:00.824Z,8.85
2023-05-18T07:38:02.495Z,8.86
2023-05-18T07:39:04.157Z,8.72
2023-05-18T07:40:06.448Z,8.79
2023-05-18T07:41:07.935Z,8.75
2023-05-18T07:42:09.635Z,8.67
2023-05-18T07:43:11.271Z,8.79
2023-05-18T07:44:13.406Z,8.72
2023-05-18T07:45:15.076Z,8.74
2023-05-18T07:46:16.797Z,8.80
2023-05-18T07:47:18.730Z,8.53
2023-05-18T07:48:20.751Z,8.58
2023-05-18T07:49:22.415Z,8.77
2023-05-18T07:50:24.151Z,8.90
2023-05-18T07:51:25.818Z,9.02
2023-05-18T07:52:27.665Z,8.86
2023-05-18T07:53:29.344Z,9.02
2023-05-18T07:54:31.016Z,8.86
2023-05-18T07:55:32.950Z,8.90
2023-05-18T07:56:35.119Z,8.75
2023-05-18T07:57:36.792Z,8.81
2023-05-18T07:58:38.455Z,8.66
2023-05-18T07:59:40.143Z,8.61
2023-05-18T08:00:41.796Z,8.82
2023-05-18T08:01:43.498Z,8.87
2023-05-18T08:02:45.307Z,8.95
2023-05-18T08:03:47.190Z,8.87
2023-05-18T08:04:48.902Z,9.01
2023-05-18T08:05:50.555Z,9.03
2023-05-18T08:06:52.316Z,8.96
2023-05-18T08:07:54.061Z,8.87
2023-05-18T08:08:55.745Z,8.80
2023-05-18T08:10:00.150Z,8.89
2023-05-18T08:11:01.835Z,8.82
2023-05-18T08:12:03.589Z,8.87
2023-05-18T08:13:05.274Z,8.95
2023-05-18T08:14:06.958Z,8.64
2023-05-18T08:15:09.162Z,8.65
2023-05-18T08:16:12.332Z,8.76
2023-05-18T08:17:14.348Z,8.70
2023-05-18T08:18:16.181Z,8.86
2023-05-18T08:19:17.968Z,8.90
2023-05-18T08:20:19.650Z,8.90
2023-05-18T08:21:24.328Z,8.94
2023-05-18T08:22:26.033Z,8.95
2023-05-18T08:23:27.703Z,8.83
2023-05-18T08:24:29.345Z,8.98
2023-05-18T08:25:31.194Z,9.00
2023-05-18T08:26:33.094Z,8.87
2023-05-18T08:27:34.810Z,8.97
2023-05-18T08:28:36.578Z,9.05
2023-05-18T08:29:38.298Z,8.78
2023-05-18T08:30:39.968Z,8.80
2023-05-18T08:31:41.655Z,8.83
2023-05-18T08:32:43.470Z,8.95
2023-05-18T08:33:45.220Z,8.76
2023-05-18T08:34:46.909Z,8.84
2023-05-18T08:35:48.752Z,8.80
2023-05-18T08:36:50.444Z,8.52
2023-05-18T08:37:52.188Z,8.83
2023-05-18T08:38:53.868Z,8.97
2023-05-18T08:39:55.520Z,8.93
2023-05-18T08:41:25.814Z,8.95
2023-05-18T08:43:06.036Z,8.75
2023-05-18T08:44:20.099Z,8.81
2023-05-18T08:45:22.905Z,8.90
2023-05-18T08:46:34.977Z,8.93
2023-05-18T08:47:36.719Z,8.97
2023-05-18T08:48:38.511Z,9.18
2023-05-18T08:49:41.814Z,8.87
2023-05-18T08:50:45.584Z,8.89
2023-05-18T08:51:48.536Z,9.04
2023-05-18T08:52:54.166Z,8.82
2023-05-18T08:53:55.824Z,8.96
2023-05-18T08:54:57.477Z,8.90
2023-05-18T08:55:59.135Z,8.96
2023-05-18T08:57:00.822Z,8.52
2023-05-18T08:58:06.400Z,9.02
2023-05-18T08:59:08.276Z,8.94
2023-05-18T09:00:10.589Z,9.01
2023-05-18T09:01:12.116Z,8.93
2023-05-18T09:02:13.831Z,8.92
2023-05-18T09:03:15.507Z,9.08
2023-05-18T09:04:18.831Z,9.10
2023-05-18T09:05:20.665Z,9.14
2023-05-18T09:06:24.070Z,9.17
2023-05-18T09:07:25.992Z,9.26
2023-05-18T09:08:28.358Z,9.23
2023-05-18T09:09:30.054Z,9.04
2023-05-18T09:10:31.827Z,9.15
2023-05-18T09:11:34.259Z,9.02
2023-05-18T09:12:35.973Z,8.96
2023-05-18T09:13:37.649Z,8.99
2023-05-18T09:14:39.354Z,9.07
2023-05-18T09:15:41.082Z,8.92
2023-05-18T09:16:42.757Z,9.01
2023-05-18T09:17:44.461Z,8.92
2023-05-18T09:18:46.219Z,8.90
2023-05-18T09:19:47.929Z,9.01
2023-05-18T09:20:49.575Z,8.90
2023-05-18T09:21:51.223Z,8.96
2023-05-18T09:22:52.910Z,9.07
2023-05-18T09:23:54.567Z,9.10
2023-05-18T09:24:56.214Z,9.12
2023-05-18T09:25:57.887Z,9.14
2023-05-18T09:26:59.758Z,9.11
2023-05-18T09:28:03.123Z,9.00
2023-05-18T09:29:18.340Z,9.03
2023-05-18T09:30:20.011Z,9.06
2023-05-18T09:31:22.173Z,9.10
2023-05-18T09:32:23.745Z,9.16
2023-05-18T09:33:25.511Z,9.13
2023-05-18T09:34:27.224Z,9.00
2023-05-18T09:35:29.050Z,9.07
2023-05-18T09:36:30.934Z,9.04
2023-05-18T09:37:32.602Z,8.92
2023-05-18T09:38:38.001Z,9.13
2023-05-18T09:39:39.662Z,9.14
2023-05-18T09:40:45.454Z,8.99
2023-05-18T09:41:47.154Z,9.02
2023-05-18T09:42:48.805Z,8.88
2023-05-18T09:43:50.506Z,8.91
2023-05-18T09:44:52.162Z,8.97
2023-05-18T09:45:53.808Z,8.90
2023-05-18T09:46:56.013Z,9.07
2023-05-18T09:47:57.685Z,9.12
2023-05-18T09:48:59.433Z,9.18
2023-05-18T09:50:01.119Z,9.22
2023-05-18T09:51:05.850Z,9.16
2023-05-18T09:52:07.969Z,9.09
2023-05-18T09:53:09.982Z,9.19
2023-05-18T09:54:11.638Z,9.23
2023-05-18T09:55:17.172Z,9.16
2023-05-18T09:56:22.971Z,9.18
2023-05-18T09:57:25.426Z,8.99
2023-05-18T09:58:30.414Z,9.24
2023-05-18T09:59:32.067Z,9.21
2023-05-18T10:00:37.218Z,9.06
2023-05-18T10:02:01.337Z,9.13
2023-05-18T10:03:03.072Z,9.20
2023-05-18T10:04:05.348Z,9.17
2023-05-18T10:05:19.673Z,9.25
2023-05-18T10:06:21.428Z,9.32
2023-05-18T10:07:23.127Z,9.33
2023-05-18T10:08:24.807Z,9.27
2023-05-18T10:09:26.472Z,9.34
2023-05-18T10:10:28.826Z,9.25
2023-05-18T10:11:33.475Z,9.27
2023-05-18T10:12:36.203Z,9.23
2023-05-18T10:13:37.884Z,9.19
2023-05-18T10:14:41.387Z,9.29
2023-05-18T10:15:50.445Z,9.19
2023-05-18T10:17:00.304Z,9.25
2023-05-18T10:18:09.205Z,9.20
2023-05-18T10:19:10.938Z,9.38
2023-05-18T10:20:14.054Z,9.42
2023-05-18T10:21:15.710Z,9.38
2023-05-18T10:22:17.369Z,9.34
2023-05-18T10:23:19.437Z,9.50
2023-05-18T10:24:21.108Z,9.52
2023-05-18T10:25:25.858Z,9.51
2023-05-18T10:26:27.534Z,9.49
2023-05-18T10:27:29.212Z,9.49
2023-05-18T10:28:32.114Z,9.35
2023-05-18T10:29:34.365Z,9.40
2023-05-18T10:30:36.137Z,9.54
2023-05-18T10:31:37.840Z,9.52
2023-05-18T10:32:39.548Z,9.43
2023-05-18T10:33:41.282Z,9.59
2023-05-18T10:34:42.933Z,9.66
2023-05-18T10:35:45.049Z,9.62
2023-05-18T10:36:46.677Z,9.69
2023-05-18T10:37:48.376Z,9.82
2023-05-18T10:38:50.068Z,9.74
2023-05-18T10:39:51.950Z,9.86
2023-05-18T10:40:55.583Z,9.87
2023-05-18T10:41:57.262Z,9.88
2023-05-18T10:42:58.932Z,10.00
2023-05-18T10:44:00.683Z,9.87
2023-05-18T10:45:02.357Z,9.92
2023-05-18T10:46:04.157Z,9.88
2023-05-18T10:47:06.460Z,10.02
2023-05-18T10:48:08.601Z,10.08
2023-05-18T10:49:10.396Z,10.09
2023-05-18T10:50:12.071Z,10.11
2023-05-18T10:51:13.817Z,10.10
2023-05-18T10:52:16.944Z,9.99
2023-05-18T10:53:19.446Z,10.25
2023-05-18T10:54:21.316Z,10.27
2023-05-18T10:55:22.970Z,10.28
2023-05-18T10:56:24.655Z,10.25
2023-05-18T10:57:27.654Z,10.06
2023-05-18T10:58:30.407Z,10.38
2023-05-18T10:59:32.102Z,10.29
2023-05-18T11:00:34.571Z,10.46
2023-05-18T11:01:36.777Z,10.47
2023-05-18T11:02:39.664Z,10.36
2023-05-18T11:03:41.345Z,10.26
2023-05-18T11:04:43.158Z,10.22
2023-05-18T11:05:48.762Z,10.36
2023-05-18T11:06:59.707Z,10.50
2023-05-18T11:08:01.615Z,10.33
2023-05-18T11:09:03.502Z,10.31
2023-05-18T11:10:09.931Z,10.26
2023-05-18T11:11:11.641Z,10.26
2023-05-18T11:12:13.904Z,10.25
2023-05-18T11:13:15.359Z,10.31
2023-05-18T11:14:17.013Z,10.39
2023-05-18T11:15:21.436Z,10.48
2023-05-18T11:16:23.181Z,10.64
2023-05-18T11:17:25.754Z,10.53
2023-05-18T11:18:37.890Z,10.45
2023-05-18T11:19:39.568Z,10.15
2023-05-18T11:20:41.228Z,10.04
2023-05-18T11:21:42.756Z,10.05
2023-05-18T11:22:59.474Z,9.95
2023-05-18T11:24:12.987Z,9.89
2023-05-18T11:25:32.709Z,10.00
2023-05-18T11:26:38.724Z,9.92
2023-05-18T11:27:40.353Z,10.03
2023-05-18T11:28:44.931Z,9.98
2023-05-18T11:29:46.715Z,10.04
2023-05-18T11:30:49.236Z,10.12
2023-05-18T11:31:52.724Z,10.17
2023-05-18T11:33:11.340Z,9.98
2023-05-18T11:34:41.621Z,10.20
2023-05-18T11:36:05.494Z,10.22
2023-05-18T11:37:08.118Z,10.30
2023-05-18T11:38:09.775Z,10.21
2023-05-18T11:39:11.446Z,10.22
2023-05-18T11:40:13.874Z,10.26
2023-05-18T11:41:37.894Z,10.18
2023-05-18T11:42:39.612Z,10.24
2023-05-18T11:43:41.693Z,10.08
2023-05-18T11:44:43.350Z,10.06
2023-05-18T11:45:57.326Z,10.11
2023-05-18T11:47:02.196Z,9.62
2023-05-18T11:48:04.469Z,10.14
2023-05-18T11:49:08.859Z,10.11
2023-05-18T11:50:11.007Z,9.95
2023-05-18T11:51:12.715Z,10.22
2023-05-18T11:52:18.299Z,10.10
2023-05-18T11:53:19.966Z,10.04
2023-05-18T11:54:25.221Z,10.07
2023-05-18T11:55:37.438Z,9.89
2023-05-18T11:56:41.047Z,9.92
2023-05-18T11:57:43.340Z,10.17
2023-05-18T11:58:45.051Z,10.10
2023-05-18T11:59:47.715Z,9.95
2023-05-18T12:00:49.385Z,9.29
2023-05-18T12:01:51.077Z,10.09
2023-05-18T12:02:53.182Z,10.22
2023-05-18T12:03:56.258Z,10.08
2023-05-18T12:04:59.882Z,9.88
2023-05-18T12:06:01.542Z,10.10
2023-05-18T12:07:06.621Z,10.13
2023-05-18T12:08:09.182Z,10.04
2023-05-18T12:09:10.883Z,10.16
2023-05-18T12:10:13.867Z,10.23
2023-05-18T12:11:16.680Z,10.36
2023-05-18T12:12:18.694Z,10.21
2023-05-18T12:13:20.365Z,10.32
2023-05-18T12:14:22.046Z,10.30
2023-05-18T12:15:24.190Z,10.26
2023-05-18T12:16:25.804Z,10.43
2023-05-18T12:17:43.199Z,10.45
2023-05-18T12:18:53.998Z,10.47
2023-05-18T12:19:55.717Z,10.55
2023-05-18T12:20:57.413Z,10.43
2023-05-18T12:21:59.197Z,10.46
2023-05-18T12:23:00.975Z,10.31
2023-05-18T12:24:02.910Z,10.44
2023-05-18T12:25:04.914Z,10.50
2023-05-18T12:26:06.888Z,10.57
2023-05-18T12:27:09.742Z,10.40
2023-05-18T12:28:11.432Z,10.46
2023-05-18T12:29:13.916Z,10.57
2023-05-18T12:30:15.446Z,10.72
2023-05-18T12:31:17.172Z,10.60
2023-05-18T12:32:18.938Z,10.57
2023-05-18T12:33:22.148Z,10.52
2023-05-18T12:34:28.629Z,10.65
2023-05-18T12:35:30.647Z,10.59
2023-05-18T12:36:32.792Z,10.70
2023-05-18T12:37:44.329Z,10.76
2023-05-18T12:38:53.131Z,10.84
2023-05-18T12:39:57.514Z,10.83
2023-05-18T12:41:02.026Z,10.77
2023-05-18T12:42:13.562Z,10.76
2023-05-18T12:43:15.661Z,10.76
2023-05-18T12:44:17.313Z,10.74
2023-05-18T12:45:18.974Z,10.85
2023-05-18T12:46:21.792Z,10.92
2023-05-18T12:47:23.467Z,10.82
2023-05-18T12:48:25.155Z,10.87
2023-05-18T12:49:26.822Z,10.74
2023-05-18T12:50:28.487Z,10.77
2023-05-18T12:51:33.405Z,10.93
2023-05-18T12:52:35.178Z,10.77
2023-05-18T12:53:43.045Z,10.88
2023-05-18T12:54:51.679Z,10.92
2023-05-18T12:55:59.301Z,11.00
2023-05-18T12:57:05.676Z,10.82
2023-05-18T12:58:14.760Z,11.05
2023-05-18T12:59:17.764Z,11.10
2023-05-18T13:00:19.868Z,11.17
2023-05-18T13:01:21.569Z,11.12
2023-05-18T13:02:36.952Z,11.13
2023-05-18T13:03:41.605Z,10.97
2023-05-18T13:04:43.439Z,10.99
2023-05-18T13:05:46.146Z,11.17
2023-05-18T13:06:48.148Z,11.00
2023-05-18T13:07:49.815Z,11.10
2023-05-18T13:08:54.675Z,11.19
2023-05-18T13:10:05.165Z,11.22
2023-05-18T13:11:14.471Z,10.70
2023-05-18T13:12:16.716Z,11.25
2023-05-18T13:13:18.370Z,11.28
2023-05-18T13:14:20.982Z,11.10
2023-05-18T13:15:23.262Z,11.26
2023-05-18T13:16:24.771Z,11.48
2023-05-18T13:17:26.525Z,11.20
2023-05-18T13:18:28.311Z,11.33
2023-05-18T13:19:30.072Z,11.46
2023-05-18T13:20:41.383Z,11.46
2023-05-18T13:21:43.047Z,11.36
2023-05-18T13:22:44.721Z,11.30
2023-05-18T13:23:46.380Z,11.41
2023-05-18T13:24:48.039Z,11.40
2023-05-18T13:25:49.716Z,11.27
2023-05-18T13:26:51.399Z,11.45
2023-05-18T13:27:53.093Z,11.48
2023-05-18T13:28:55.878Z,11.48
2023-05-18T13:29:57.568Z,11.53
2023-05-18T13:30:59.214Z,11.59
2023-05-18T13:32:00.948Z,11.68
2023-05-18T13:33:02.784Z,11.54
2023-05-18T13:34:04.461Z,11.76
2023-05-18T13:35:06.175Z,11.86
2023-05-18T13:36:08.133Z,11.68
2023-05-18T13:37:11.470Z,11.73
2023-05-18T13:38:14.328Z,11.66
2023-05-18T13:39:16.010Z,11.76
2023-05-18T13:40:18.646Z,11.83
2023-05-18T13:41:20.350Z,11.79
2023-05-18T13:42:22.019Z,11.73
2023-05-18T13:43:23.706Z,11.60
2023-05-18T13:44:25.380Z,11.54
2023-05-18T13:45:27.063Z,11.45
2023-05-18T13:46:28.855Z,11.47
2023-05-18T13:47:30.699Z,11.28
2023-05-18T13:48:32.441Z,11.39
2023-05-18T13:49:34.107Z,11.51
2023-05-18T13:50:35.814Z,11.44
2023-05-18T13:51:37.518Z,11.30
2023-05-18T13:52:39.182Z,11.46
2023-05-18T13:53:41.051Z,11.43
2023-05-18T13:54:42.795Z,11.56
2023-05-18T13:55:44.461Z,11.57
2023-05-18T13:56:46.710Z,11.43